createdAt,value
2022-09-16T00:00:51.697Z,16.00
2022-09-16T00:03:19.570Z,16.00
2022-09-16T00:05:49.956Z,16.00
2022-09-16T00:08:17.717Z,15.90
2022-09-16T00:10:45.350Z,15.90
2022-09-16T00:13:13.157Z,15.90
2022-09-16T00:15:49.219Z,15.80
2022-09-16T00:18:16.396Z,15.80
2022-09-16T00:20:45.837Z,15.80
2022-09-16T00:23:13.083Z,15.80
2022-09-16T00:25:40.385Z,15.80
2022-09-16T00:28:07.891Z,15.80
2022-09-16T00:30:35.228Z,15.70
2022-09-16T00:33:02.385Z,15.70
2022-09-16T00:35:29.572Z,15.70
2022-09-16T00:37:56.645Z,15.70
2022-09-16T00:40:23.976Z,15.70
2022-09-16T00:42:51.191Z,15.60
2022-09-16T00:45:24.268Z,15.60
2022-09-16T00:47:55.710Z,15.60
2022-09-16T00:50:38.651Z,15.50
2022-09-16T00:53:10.047Z,15.60
2022-09-16T00:55:38.576Z,15.50
2022-09-16T00:58:14.122Z,15.50
2022-09-16T01:00:41.878Z,15.40
2022-09-16T01:03:09.159Z,15.40
2022-09-16T01:05:37.745Z,15.40
2022-09-16T01:08:05.149Z,15.40
2022-09-16T01:10:32.526Z,15.40
2022-09-16T01:13:03.974Z,15.40
2022-09-16T01:15:39.722Z,15.30
2022-09-16T01:18:21.642Z,15.30
2022-09-16T01:21:00.062Z,15.30
2022-09-16T01:24:04.265Z,15.30
2022-09-16T01:26:47.390Z,15.20
2022-09-16T01:29:38.784Z,15.20
2022-09-16T01:32:22.493Z,15.20
2022-09-16T01:35:11.352Z,15.20
2022-09-16T01:38:09.611Z,15.20
2022-09-16T01:40:48.884Z,15.20
2022-09-16T01:43:31.541Z,15.20
2022-09-16T01:46:04.754Z,15.10
2022-09-16T01:49:06.545Z,15.10
2022-09-16T01:52:02.682Z,15.10
2022-09-16T01:54:51.323Z,15.10
2022-09-16T01:57:34.707Z,15.10
2022-09-16T02:00:08.778Z,15.10
2022-09-16T02:03:11.178Z,15.10
2022-09-16T02:05:50.972Z,15.00
2022-09-16T02:08:28.093Z,15.00
2022-09-16T02:10:59.723Z,15.00
2022-09-16T02:13:59.098Z,14.90
2022-09-16T02:16:35.587Z,14.90
2022-09-16T02:19:09.442Z,14.90
2022-09-16T02:21:44.874Z,14.90
2022-09-16T02:24:17.041Z,14.90
2022-09-16T02:26:50.172Z,14.90
2022-09-16T02:29:24.858Z,14.90
2022-09-16T02:31:56.058Z,14.80
2022-09-16T02:34:45.352Z,14.80
2022-09-16T02:37:18.221Z,14.80
2022-09-16T02:39:49.997Z,14.80
2022-09-16T02:42:17.653Z,14.70
2022-09-16T02:44:47.962Z,14.70
2022-09-16T02:47:33.064Z,14.70
2022-09-16T02:51:04.905Z,14.70
2022-09-16T02:53:53.418Z,14.70
2022-09-16T02:56:27.295Z,14.60
2022-09-16T02:59:02.433Z,14.70
2022-09-16T03:01:34.024Z,14.70
2022-09-16T03:04:01.693Z,14.60
2022-09-16T03:06:29.852Z,14.60
2022-09-16T03:09:00.439Z,14.60
2022-09-16T03:12:17.888Z,14.60
2022-09-16T03:15:02.426Z,14.50
2022-09-16T03:17:48.334Z,14.50
2022-09-16T03:20:45.331Z,14.50
2022-09-16T03:23:35.521Z,14.50
2022-09-16T03:26:17.577Z,14.50
2022-09-16T03:29:19.612Z,14.50
2022-09-16T03:32:03.355Z,14.50
2022-09-16T03:34:32.620Z,14.40
2022-09-16T03:37:05.191Z,14.40
2022-09-16T03:39:33.845Z,14.40
2022-09-16T03:42:08.219Z,14.40
2022-09-16T03:44:39.264Z,14.40
2022-09-16T03:47:10.670Z,14.30
2022-09-16T03:49:38.264Z,14.30
2022-09-16T03:52:08.760Z,14.30
2022-09-16T03:54:38.988Z,14.30
2022-09-16T03:57:06.810Z,14.30
2022-09-16T03:59:34.268Z,14.30
2022-09-16T04:02:01.555Z,14.20
2022-09-16T04:04:28.738Z,14.20
2022-09-16T04:06:55.952Z,14.20
2022-09-16T04:09:23.063Z,14.20
2022-09-16T04:11:50.259Z,14.20
2022-09-16T04:14:17.486Z,14.20
2022-09-16T04:16:45.469Z,14.20
2022-09-16T04:19:13.704Z,14.20
2022-09-16T04:21:42.129Z,14.20
2022-09-16T04:24:12.970Z,14.10
2022-09-16T04:26:41.127Z,14.10
2022-09-16T04:29:08.369Z,14.10
2022-09-16T04:31:35.682Z,14.10
2022-09-16T04:34:03.897Z,14.10
2022-09-16T04:36:31.316Z,14.10
2022-09-16T04:38:58.474Z,14.10
2022-09-16T04:41:27.022Z,14.10
2022-09-16T04:43:56.970Z,14.10
2022-09-16T04:46:29.480Z,14.00
2022-09-16T04:48:57.317Z,14.00
2022-09-16T04:51:28.362Z,14.00
2022-09-16T04:53:56.777Z,14.00
2022-09-16T04:56:26.910Z,14.00
2022-09-16T04:59:00.644Z,14.00
2022-09-16T05:01:30.339Z,14.00
2022-09-16T05:04:02.275Z,13.90
2022-09-16T05:06:35.093Z,13.90
2022-09-16T05:09:03.477Z,13.90
2022-09-16T05:11:36.862Z,13.90
2022-09-16T05:14:06.946Z,13.90
2022-09-16T05:16:34.577Z,13.90
2022-09-16T05:19:05.008Z,13.90
2022-09-16T05:21:35.242Z,13.90
2022-09-16T05:24:04.729Z,13.90
2022-09-16T05:26:32.934Z,13.80
2022-09-16T05:29:05.110Z,13.80
2022-09-16T05:31:35.147Z,13.80
2022-09-16T05:34:17.502Z,13.80
2022-09-16T05:36:47.596Z,13.80
2022-09-16T05:39:25.933Z,13.80
2022-09-16T05:41:59.164Z,13.80
2022-09-16T05:44:27.832Z,13.80
2022-09-16T05:46:55.381Z,13.70
2022-09-16T05:49:23.914Z,13.80
2022-09-16T05:51:52.044Z,13.70
2022-09-16T05:54:19.766Z,13.70
2022-09-16T05:56:48.047Z,13.70
2022-09-16T05:59:16.462Z,13.70
2022-09-16T06:01:46.947Z,13.70
2022-09-16T06:04:15.584Z,13.70
2022-09-16T06:06:47.153Z,13.70
2022-09-16T06:09:23.761Z,13.70
2022-09-16T06:12:00.801Z,13.70
2022-09-16T06:14:28.835Z,13.70
2022-09-16T06:16:56.097Z,13.70
2022-09-16T06:19:23.538Z,13.70
2022-09-16T06:21:50.752Z,13.70
2022-09-16T06:24:19.468Z,13.70
2022-09-16T06:26:47.801Z,13.70
2022-09-16T06:29:15.962Z,13.70
2022-09-16T06:31:43.418Z,13.70
2022-09-16T06:34:18.701Z,13.70
2022-09-16T06:36:46.598Z,13.80
2022-09-16T06:39:15.359Z,13.70
2022-09-16T06:41:42.964Z,13.70
2022-09-16T06:44:10.409Z,13.70
2022-09-16T06:46:37.802Z,13.70
2022-09-16T06:49:06.404Z,13.70
2022-09-16T06:51:35.052Z,13.70
2022-09-16T06:54:07.157Z,13.70
2022-09-16T06:56:36.338Z,13.70
2022-09-16T06:59:03.819Z,13.70
2022-09-16T07:01:31.970Z,13.70
2022-09-16T07:04:03.773Z,13.70
2022-09-16T07:07:07.598Z,13.80
2022-09-16T07:09:18.598Z,13.80
2022-09-16T07:11:45.687Z,13.90
2022-09-16T07:14:12.876Z,13.90
2022-09-16T07:16:40.129Z,13.90
2022-09-16T07:19:07.452Z,13.90
2022-09-16T07:21:34.670Z,13.90
2022-09-16T07:24:03.592Z,13.90
2022-09-16T07:26:33.104Z,14.00
2022-09-16T07:29:02.463Z,14.00
2022-09-16T07:31:33.236Z,14.00
2022-09-16T07:34:04.805Z,14.00
2022-09-16T07:36:43.179Z,14.00
2022-09-16T07:39:11.771Z,14.00
2022-09-16T07:41:41.807Z,14.00
2022-09-16T07:44:12.477Z,14.00
2022-09-16T07:46:40.421Z,14.00
2022-09-16T07:49:09.342Z,13.90
2022-09-16T07:51:36.519Z,13.90
2022-09-16T07:54:06.836Z,13.90
2022-09-16T07:56:37.351Z,13.90
2022-09-16T07:59:06.453Z,13.90
2022-09-16T08:01:34.458Z,13.90
2022-09-16T08:04:02.366Z,13.90
2022-09-16T08:06:31.498Z,13.90
2022-09-16T08:09:09.815Z,14.00
2022-09-16T08:11:47.753Z,14.00
2022-09-16T08:14:14.930Z,13.90
2022-09-16T08:16:42.050Z,13.90
2022-09-16T08:19:09.991Z,13.90
2022-09-16T08:21:37.274Z,13.90
2022-09-16T08:24:04.834Z,13.90
2022-09-16T08:26:32.292Z,13.90
2022-09-16T08:29:15.053Z,13.90
2022-09-16T08:31:42.392Z,13.90
2022-09-16T08:34:09.541Z,13.90
2022-09-16T08:36:36.709Z,13.90
2022-09-16T08:39:04.042Z,13.90
2022-09-16T08:41:42.932Z,13.90
2022-09-16T08:44:45.584Z,13.90
2022-09-16T08:47:22.407Z,13.90
2022-09-16T08:49:51.441Z,14.00
2022-09-16T08:52:33.868Z,14.00
2022-09-16T08:55:05.152Z,14.10
2022-09-16T08:57:36.830Z,14.10
2022-09-16T09:00:19.982Z,14.20
2022-09-16T09:02:56.013Z,14.30
2022-09-16T09:05:47.180Z,14.30
2022-09-16T09:08:38.543Z,14.30
2022-09-16T09:11:42.224Z,14.30
2022-09-16T09:14:44.851Z,14.30
2022-09-16T09:17:49.648Z,14.20
2022-09-16T09:20:49.942Z,14.20
2022-09-16T09:23:38.569Z,14.20
2022-09-16T09:26:15.363Z,14.20
2022-09-16T09:28:56.374Z,14.20
2022-09-16T09:31:42.497Z,14.20
2022-09-16T09:34:09.568Z,14.30
2022-09-16T09:37:00.334Z,14.30
2022-09-16T09:39:57.574Z,14.30
2022-09-16T09:42:43.245Z,14.40
2022-09-16T09:45:21.298Z,14.40
2022-09-16T09:47:55.753Z,14.40
2022-09-16T09:51:18.967Z,14.40
2022-09-16T09:54:42.021Z,14.40
2022-09-16T09:58:05.385Z,14.40
2022-09-16T10:01:28.381Z,14.40
2022-09-16T10:04:51.877Z,14.40
2022-09-16T10:08:16.587Z,14.50
2022-09-16T10:11:40.696Z,14.50
2022-09-16T10:15:03.721Z,14.60
2022-09-16T10:18:27.307Z,14.60
2022-09-16T10:21:51.885Z,14.60
2022-09-16T10:25:17.039Z,14.70
2022-09-16T10:28:40.605Z,14.70
2022-09-16T10:32:03.731Z,14.80
2022-09-16T10:35:26.833Z,14.90
2022-09-16T10:38:50.751Z,14.90
2022-09-16T10:42:14.118Z,14.90
2022-09-16T10:45:37.087Z,15.00
2022-09-16T10:49:00.118Z,15.00
2022-09-16T10:52:23.303Z,15.10
2022-09-16T10:55:46.540Z,15.10
2022-09-16T10:59:09.473Z,15.10
2022-09-16T11:02:32.626Z,15.20
2022-09-16T11:05:55.253Z,15.20
2022-09-16T11:09:18.287Z,15.20
2022-09-16T11:12:41.437Z,15.30
2022-09-16T11:16:04.689Z,15.30
2022-09-16T11:19:27.689Z,15.30
2022-09-16T11:22:50.706Z,15.30
2022-09-16T11:26:13.740Z,15.30
2022-09-16T11:29:37.039Z,15.30
2022-09-16T11:33:02.412Z,15.30
2022-09-16T11:36:26.389Z,15.40
2022-09-16T11:39:49.624Z,15.40
2022-09-16T11:43:12.981Z,15.40
2022-09-16T11:46:36.062Z,15.40
2022-09-16T11:49:40.324Z,15.50
2022-09-16T11:52:34.803Z,15.50
2022-09-16T11:55:26.416Z,15.50
2022-09-16T11:58:01.664Z,15.50
2022-09-16T12:00:30.386Z,15.50
2022-09-16T12:03:22.391Z,15.50
2022-09-16T12:06:03.752Z,15.50
2022-09-16T12:08:33.463Z,15.40
2022-09-16T12:11:00.604Z,15.40
2022-09-16T12:13:48.900Z,15.40
2022-09-16T12:16:20.203Z,15.30
2022-09-16T12:18:58.665Z,15.30
2022-09-16T12:21:41.696Z,15.30
2022-09-16T12:24:30.005Z,15.30
2022-09-16T12:27:14.007Z,15.30
2022-09-16T12:30:04.375Z,15.30
2022-09-16T12:32:43.798Z,15.30
2022-09-16T12:35:18.083Z,15.30
2022-09-16T12:37:49.509Z,15.30
2022-09-16T12:40:27.149Z,15.40
2022-09-16T12:43:10.660Z,15.30
2022-09-16T12:46:06.423Z,15.40
2022-09-16T12:48:58.074Z,15.50
2022-09-16T12:51:59.690Z,15.50
2022-09-16T12:55:04.066Z,15.60
2022-09-16T12:57:48.153Z,15.60
2022-09-16T13:00:49.708Z,15.60
2022-09-16T13:03:20.378Z,15.70
2022-09-16T13:05:50.949Z,15.70
2022-09-16T13:08:23.997Z,15.80
2022-09-16T13:11:38.982Z,15.80
2022-09-16T13:13:57.987Z,15.90
2022-09-16T13:16:36.564Z,15.90
2022-09-16T13:19:09.487Z,15.90
2022-09-16T13:21:47.448Z,15.90
2022-09-16T13:24:37.944Z,15.90
2022-09-16T13:27:31.366Z,16.00
2022-09-16T13:30:13.263Z,16.00
2022-09-16T13:32:52.402Z,16.10
2022-09-16T13:35:19.489Z,16.10
2022-09-16T13:37:47.903Z,16.20
2022-09-16T13:40:30.160Z,16.10
2022-09-16T13:43:09.526Z,16.20
2022-09-16T13:45:41.248Z,16.20
2022-09-16T13:48:21.670Z,16.20
2022-09-16T13:50:59.381Z,16.20
2022-09-16T13:53:33.613Z,16.20
2022-09-16T13:56:13.906Z,16.20
2022-09-16T13:58:49.589Z,16.20
2022-09-16T14:01:58.392Z,16.30
2022-09-16T14:04:57.287Z,16.30
2022-09-16T14:07:42.938Z,16.30
2022-09-16T14:10:24.082Z,16.30
2022-09-16T14:13:04.309Z,16.30
2022-09-16T14:15:39.018Z,16.30
2022-09-16T14:18:07.243Z,16.40
2022-09-16T14:20:35.356Z,16.40
2022-09-16T14:23:16.931Z,16.40
2022-09-16T14:25:44.118Z,16.40
2022-09-16T14:28:18.768Z,16.40
2022-09-16T14:30:56.211Z,16.40
2022-09-16T14:33:27.067Z,16.40
2022-09-16T14:35:56.416Z,16.40
2022-09-16T14:38:52.658Z,16.40
2022-09-16T14:41:31.123Z,16.40
2022-09-16T14:44:10.575Z,16.40
2022-09-16T14:47:00.269Z,16.40
2022-09-16T14:49:37.971Z,16.40
2022-09-16T14:52:19.923Z,16.40
2022-09-16T14:54:47.618Z,16.40
2022-09-16T14:57:23.162Z,16.40
2022-09-16T14:59:57.556Z,16.40
2022-09-16T15:02:37.401Z,16.40
2022-09-16T15:05:24.421Z,16.40
2022-09-16T15:08:13.206Z,16.40
2022-09-16T15:10:56.475Z,16.40
2022-09-16T15:13:27.984Z,16.40
2022-09-16T15:16:00.047Z,16.40
2022-09-16T15:18:36.322Z,16.40
2022-09-16T15:21:12.525Z,16.40
2022-09-16T15:23:42.494Z,16.40
2022-09-16T15:26:19.076Z,16.40
2022-09-16T15:28:59.544Z,16.40
2022-09-16T15:31:27.969Z,16.40
2022-09-16T15:33:57.220Z,16.30
2022-09-16T15:36:39.917Z,16.40
2022-09-16T15:39:24.414Z,16.40
2022-09-16T15:42:08.477Z,16.40
2022-09-16T15:44:37.644Z,16.40
2022-09-16T15:47:05.478Z,16.30
2022-09-16T15:49:39.424Z,16.30
2022-09-16T15:52:10.608Z,16.30
2022-09-16T15:54:54.117Z,16.30
2022-09-16T15:57:32.781Z,16.30
2022-09-16T16:00:12.983Z,16.30
2022-09-16T16:03:05.281Z,16.30
2022-09-16T16:05:33.210Z,16.30
2022-09-16T16:08:06.147Z,16.30
2022-09-16T16:10:36.470Z,16.30
2022-09-16T16:13:06.638Z,16.30
2022-09-16T16:15:36.080Z,16.30
2022-09-16T16:18:08.146Z,16.30
2022-09-16T16:20:38.177Z,16.30
2022-09-16T16:23:05.359Z,16.30
2022-09-16T16:25:34.243Z,16.30
2022-09-16T16:28:01.545Z,16.30
2022-09-16T16:30:28.609Z,16.10
2022-09-16T16:32:55.751Z,16.20
2022-09-16T16:35:22.929Z,16.20
2022-09-16T16:37:50.125Z,16.10
2022-09-16T16:40:17.342Z,16.10
2022-09-16T16:42:44.947Z,16.20
2022-09-16T16:45:15.066Z,16.20
2022-09-16T16:47:43.372Z,16.20
2022-09-16T16:50:11.344Z,16.20
2022-09-16T16:52:38.720Z,16.20
2022-09-16T16:55:06.915Z,16.20
2022-09-16T16:57:34.225Z,16.20
2022-09-16T17:00:01.421Z,16.20
2022-09-16T17:02:28.603Z,16.20
2022-09-16T17:04:55.890Z,16.20
2022-09-16T17:07:27.462Z,16.20
2022-09-16T17:09:56.977Z,16.20
2022-09-16T17:12:24.165Z,16.20
2022-09-16T17:14:51.403Z,16.20
2022-09-16T17:17:18.456Z,16.20
2022-09-16T17:19:45.613Z,16.20
2022-09-16T17:22:12.737Z,16.20
2022-09-16T17:24:39.846Z,16.20
2022-09-16T17:27:06.939Z,16.20
2022-09-16T17:29:34.023Z,16.20
2022-09-16T17:32:03.151Z,16.20
2022-09-16T17:34:31.281Z,16.20
2022-09-16T17:36:58.802Z,16.20
2022-09-16T17:39:26.212Z,16.20
2022-09-16T17:41:54.647Z,16.10
2022-09-16T17:44:22.186Z,16.20
2022-09-16T17:46:49.467Z,16.20
2022-09-16T17:49:20.275Z,16.10
2022-09-16T17:51:48.336Z,16.10
2022-09-16T17:54:15.689Z,16.10
2022-09-16T17:56:43.617Z,16.10
2022-09-16T17:59:12.481Z,16.10
2022-09-16T18:01:40.196Z,16.10
2022-09-16T18:04:08.104Z,16.10
2022-09-16T18:06:43.967Z,16.10
2022-09-16T18:09:12.248Z,16.10
2022-09-16T18:11:40.014Z,16.10
2022-09-16T18:14:10.502Z,16.10
2022-09-16T18:16:37.769Z,16.00
2022-09-16T18:19:05.822Z,16.10
2022-09-16T18:21:33.778Z,16.00
2022-09-16T18:24:03.038Z,16.00
2022-09-16T18:26:31.930Z,16.00
2022-09-16T18:29:10.575Z,16.00
2022-09-16T18:31:40.199Z,16.00
2022-09-16T18:34:07.833Z,16.00
2022-09-16T18:36:37.025Z,16.00
2022-09-16T18:39:05.241Z,16.00
2022-09-16T18:41:37.642Z,16.00
2022-09-16T18:44:08.028Z,16.00
2022-09-16T18:46:36.974Z,16.00
2022-09-16T18:49:05.168Z,16.00
2022-09-16T18:51:38.586Z,16.00
2022-09-16T18:54:14.433Z,15.90
2022-09-16T18:56:41.638Z,15.90
2022-09-16T18:59:22.186Z,15.90
2022-09-16T19:01:53.044Z,15.90
2022-09-16T19:04:24.277Z,15.90
2022-09-16T19:06:54.183Z,15.90
2022-09-16T19:09:24.319Z,15.90
2022-09-16T19:11:54.192Z,15.90
2022-09-16T19:14:24.469Z,15.80
2022-09-16T19:16:52.289Z,15.90
2022-09-16T19:19:19.922Z,15.90
2022-09-16T19:21:47.947Z,15.90
2022-09-16T19:24:17.947Z,15.80
2022-09-16T19:26:46.422Z,15.80
2022-09-16T19:29:14.908Z,15.80
2022-09-16T19:31:44.178Z,15.80
2022-09-16T19:34:12.515Z,15.80
2022-09-16T19:36:40.171Z,15.80
2022-09-16T19:39:08.611Z,15.80
2022-09-16T19:41:38.437Z,15.80
2022-09-16T19:44:08.628Z,15.80
2022-09-16T19:46:37.872Z,15.70
2022-09-16T19:49:06.407Z,15.70
2022-09-16T19:51:33.597Z,15.70
2022-09-16T19:54:01.312Z,15.70
2022-09-16T19:56:33.662Z,15.70
2022-09-16T19:59:04.260Z,15.70
2022-09-16T20:01:33.510Z,15.70
2022-09-16T20:04:02.513Z,15.70
2022-09-16T20:06:34.968Z,15.70
2022-09-16T20:09:03.876Z,15.60
2022-09-16T20:11:35.520Z,15.60
2022-09-16T20:14:05.691Z,15.60
2022-09-16T20:16:38.893Z,15.60
2022-09-16T20:19:12.556Z,15.60
2022-09-16T20:21:40.452Z,15.60
2022-09-16T20:24:10.290Z,15.60
2022-09-16T20:26:37.450Z,15.60
2022-09-16T20:29:05.387Z,15.50
2022-09-16T20:31:35.736Z,15.50
2022-09-16T20:34:04.317Z,15.50
2022-09-16T20:36:35.673Z,15.50
2022-09-16T20:39:03.116Z,15.50
2022-09-16T20:41:32.152Z,15.50
2022-09-16T20:44:00.345Z,15.50
2022-09-16T20:46:33.010Z,15.50
2022-09-16T20:49:02.740Z,15.50
2022-09-16T20:51:31.957Z,15.50
2022-09-16T20:54:08.453Z,15.40
2022-09-16T20:56:39.198Z,15.40
2022-09-16T20:59:11.316Z,15.40
2022-09-16T21:01:39.709Z,15.40
2022-09-16T21:04:12.368Z,15.40
2022-09-16T21:06:39.686Z,15.40
2022-09-16T21:09:10.329Z,15.40
2022-09-16T21:11:44.701Z,15.40
2022-09-16T21:14:15.363Z,15.40
2022-09-16T21:16:43.826Z,15.40
2022-09-16T21:19:12.911Z,15.30
2022-09-16T21:21:43.212Z,15.30
2022-09-16T21:24:10.495Z,15.30
2022-09-16T21:26:39.091Z,15.30
2022-09-16T21:29:12.042Z,15.30
2022-09-16T21:31:42.040Z,15.30
2022-09-16T21:34:16.338Z,15.30
2022-09-16T21:36:46.958Z,15.30
2022-09-16T21:39:14.982Z,15.30
2022-09-16T21:41:46.586Z,15.30
2022-09-16T21:44:14.651Z,15.30
2022-09-16T21:46:45.521Z,15.20
2022-09-16T21:49:22.891Z,15.30
2022-09-16T21:51:58.626Z,15.20
2022-09-16T21:54:26.693Z,15.30
2022-09-16T21:56:53.957Z,15.20
2022-09-16T21:59:21.424Z,15.20
2022-09-16T22:01:50.325Z,15.20
2022-09-16T22:04:20.872Z,15.20
2022-09-16T22:06:49.028Z,15.20
2022-09-16T22:09:16.601Z,15.20
2022-09-16T22:11:46.783Z,15.20
2022-09-16T22:14:14.274Z,15.20
2022-09-16T22:16:44.831Z,15.20
2022-09-16T22:19:15.978Z,15.20
2022-09-16T22:21:45.997Z,15.20
2022-09-16T22:24:13.777Z,15.10
2022-09-16T22:26:43.906Z,15.10
2022-09-16T22:29:12.467Z,15.10
2022-09-16T22:31:42.067Z,15.10
2022-09-16T22:34:09.767Z,15.10
2022-09-16T22:36:39.148Z,15.10
2022-09-16T22:39:11.216Z,15.10
2022-09-16T22:41:38.457Z,15.10
2022-09-16T22:44:05.756Z,15.10
2022-09-16T22:46:39.194Z,15.10
2022-09-16T22:49:06.277Z,15.10
2022-09-16T22:51:33.467Z,15.00
2022-09-16T22:54:00.581Z,15.10
2022-09-16T22:56:32.155Z,15.00
2022-09-16T22:59:02.316Z,15.00
2022-09-16T23:01:40.220Z,15.00
2022-09-16T23:04:09.152Z,15.00
2022-09-16T23:06:38.701Z,15.00
2022-09-16T23:09:07.395Z,15.00
2022-09-16T23:11:35.705Z,15.00
2022-09-16T23:14:03.123Z,15.00
2022-09-16T23:16:36.315Z,15.00
2022-09-16T23:19:05.940Z,15.00
2022-09-16T23:21:33.531Z,15.00
2022-09-16T23:24:03.332Z,15.00
2022-09-16T23:26:33.215Z,14.90
2022-09-16T23:29:02.309Z,14.90
2022-09-16T23:31:31.999Z,14.90
2022-09-16T23:33:59.971Z,14.90
2022-09-16T23:36:28.263Z,14.90
2022-09-16T23:38:55.670Z,14.90
2022-09-16T23:41:26.755Z,14.90
2022-09-16T23:43:55.044Z,14.90
2022-09-16T23:46:23.868Z,14.90
2022-09-16T23:48:51.881Z,14.90
2022-09-16T23:51:23.611Z,14.90
2022-09-16T23:53:55.391Z,14.90
2022-09-16T23:56:22.565Z,14.90
2022-09-16T23:58:52.920Z,14.90
